sensor_id;sensor_type;location;lat;lon;timestamp;P1;durP1;ratioP1;P2;durP2;ratioP2
74894;SDS011;63447;49.446;8.666;2023-11-21T00:02:27;7.13;;;2.05;;
74894;SDS011;63447;49.446;8.666;2023-11-21T00:04:53;6.30;;;2.05;;
74894;SDS011;63447;49.446;8.666;2023-11-21T00:07:18;9.50;;;2.28;;
74894;SDS011;63447;49.446;8.666;2023-11-21T00:09:44;10.10;;;1.80;;
74894;SDS011;63447;49.446;8.666;2023-11-21T00:12:14;8.73;;;2.60;;
74894;SDS011;63447;49.446;8.666;2023-11-21T00:14:40;7.22;;;2.15;;
74894;SDS011;63447;49.446;8.666;2023-11-21T00:17:10;9.48;;;2.13;;
74894;SDS011;63447;49.446;8.666;2023-11-21T00:19:38;8.68;;;2.20;;
74894;SDS011;63447;49.446;8.666;2023-11-21T00:22:05;11.48;;;2.20;;
74894;SDS011;63447;49.446;8.666;2023-11-21T00:24:32;9.75;;;2.10;;
74894;SDS011;63447;49.446;8.666;2023-11-21T00:26:57;10.10;;;2.73;;
74894;SDS011;63447;49.446;8.666;2023-11-21T00:29:22;5.23;;;1.90;;
74894;SDS011;63447;49.446;8.666;2023-11-21T00:31:50;8.02;;;2.38;;
74894;SDS011;63447;49.446;8.666;2023-11-21T00:34:20;6.90;;;2.20;;
74894;SDS011;63447;49.446;8.666;2023-11-21T00:36:46;6.95;;;2.15;;
74894;SDS011;63447;49.446;8.666;2023-11-21T00:39:11;6.83;;;2.00;;
74894;SDS011;63447;49.446;8.666;2023-11-21T00:41:36;9.70;;;2.53;;
74894;SDS011;63447;49.446;8.666;2023-11-21T00:44:02;9.63;;;3.20;;
74894;SDS011;63447;49.446;8.666;2023-11-21T00:46:31;10.00;;;2.40;;
74894;SDS011;63447;49.446;8.666;2023-11-21T00:48:59;8.88;;;2.50;;
74894;SDS011;63447;49.446;8.666;2023-11-21T00:51:25;10.48;;;2.35;;
74894;SDS011;63447;49.446;8.666;2023-11-21T00:53:52;12.07;;;2.40;;
74894;SDS011;63447;49.446;8.666;2023-11-21T00:56:18;6.18;;;2.00;;
74894;SDS011;63447;49.446;8.666;2023-11-21T00:58:43;10.98;;;2.22;;
74894;SDS011;63447;49.446;8.666;2023-11-21T01:01:11;9.43;;;2.22;;
74894;SDS011;63447;49.446;8.666;2023-11-21T01:03:39;9.18;;;2.40;;
74894;SDS011;63447;49.446;8.666;2023-11-21T01:06:05;8.93;;;2.20;;
74894;SDS011;63447;49.446;8.666;2023-11-21T01:08:32;9.68;;;2.50;;
74894;SDS011;63447;49.446;8.666;2023-11-21T01:10:58;10.90;;;2.10;;
74894;SDS011;63447;49.446;8.666;2023-11-21T01:13:23;6.77;;;1.90;;
74894;SDS011;63447;49.446;8.666;2023-11-21T01:15:54;7.68;;;2.30;;
74894;SDS011;63447;49.446;8.666;2023-11-21T01:18:20;6.68;;;1.80;;
74894;SDS011;63447;49.446;8.666;2023-11-21T01:20:46;7.40;;;1.80;;
74894;SDS011;63447;49.446;8.666;2023-11-21T01:23:14;9.93;;;2.00;;
74894;SDS011;63447;49.446;8.666;2023-11-21T01:25:39;7.20;;;2.00;;
74894;SDS011;63447;49.446;8.666;2023-11-21T01:28:05;8.77;;;1.95;;
74894;SDS011;63447;49.446;8.666;2023-11-21T01:30:30;8.38;;;1.75;;
74894;SDS011;63447;49.446;8.666;2023-11-21T01:32:57;9.63;;;2.15;;
74894;SDS011;63447;49.446;8.666;2023-11-21T01:35:25;7.10;;;1.80;;
74894;SDS011;63447;49.446;8.666;2023-11-21T01:37:51;10.00;;;2.92;;
74894;SDS011;63447;49.446;8.666;2023-11-21T01:40:16;10.33;;;1.90;;
74894;SDS011;63447;49.446;8.666;2023-11-21T01:42:42;6.43;;;1.87;;
74894;SDS011;63447;49.446;8.666;2023-11-21T01:45:12;7.07;;;1.60;;
74894;SDS011;63447;49.446;8.666;2023-11-21T01:47:40;9.32;;;2.15;;
74894;SDS011;63447;49.446;8.666;2023-11-21T01:50:07;6.47;;;1.80;;
74894;SDS011;63447;49.446;8.666;2023-11-21T01:52:37;7.95;;;1.92;;
74894;SDS011;63447;49.446;8.666;2023-11-21T01:55:04;7.22;;;2.13;;
74894;SDS011;63447;49.446;8.666;2023-11-21T01:57:35;9.38;;;1.88;;
74894;SDS011;63447;49.446;8.666;2023-11-21T02:00:02;5.55;;;1.85;;
74894;SDS011;63447;49.446;8.666;2023-11-21T02:05:09;7.15;;;1.80;;
74894;SDS011;63447;49.446;8.666;2023-11-21T02:07:44;7.97;;;1.90;;
74894;SDS011;63447;49.446;8.666;2023-11-21T02:10:17;8.73;;;2.22;;
74894;SDS011;63447;49.446;8.666;2023-11-21T02:12:48;5.05;;;1.80;;
74894;SDS011;63447;49.446;8.666;2023-11-21T02:15:17;9.70;;;2.30;;
74894;SDS011;63447;49.446;8.666;2023-11-21T02:17:48;5.28;;;1.70;;
74894;SDS011;63447;49.446;8.666;2023-11-21T02:20:19;9.63;;;2.20;;
74894;SDS011;63447;49.446;8.666;2023-11-21T02:22:51;10.15;;;1.90;;
74894;SDS011;63447;49.446;8.666;2023-11-21T02:25:29;6.47;;;1.70;;
74894;SDS011;63447;49.446;8.666;2023-11-21T02:27:57;7.72;;;1.67;;
74894;SDS011;63447;49.446;8.666;2023-11-21T02:30:26;7.07;;;1.98;;
74894;SDS011;63447;49.446;8.666;2023-11-21T02:32:58;8.40;;;1.95;;
74894;SDS011;63447;49.446;8.666;2023-11-21T02:35:23;7.22;;;2.00;;
74894;SDS011;63447;49.446;8.666;2023-11-21T02:37:50;8.75;;;1.95;;
74894;SDS011;63447;49.446;8.666;2023-11-21T02:40:16;5.57;;;1.63;;
74894;SDS011;63447;49.446;8.666;2023-11-21T02:42:43;10.48;;;2.25;;
74894;SDS011;63447;49.446;8.666;2023-11-21T02:45:09;7.72;;;2.03;;
74894;SDS011;63447;49.446;8.666;2023-11-21T02:47:37;6.32;;;2.08;;
74894;SDS011;63447;49.446;8.666;2023-11-21T02:50:05;7.45;;;1.90;;
74894;SDS011;63447;49.446;8.666;2023-11-21T02:52:33;7.55;;;1.80;;
74894;SDS011;63447;49.446;8.666;2023-11-21T02:55:02;6.93;;;1.92;;
74894;SDS011;63447;49.446;8.666;2023-11-21T02:57:32;5.35;;;1.50;;
74894;SDS011;63447;49.446;8.666;2023-11-21T02:59:59;9.02;;;2.30;;
74894;SDS011;63447;49.446;8.666;2023-11-21T03:02:25;7.93;;;2.13;;
74894;SDS011;63447;49.446;8.666;2023-11-21T03:04:55;6.90;;;1.88;;
74894;SDS011;63447;49.446;8.666;2023-11-21T03:07:20;5.75;;;1.40;;
74894;SDS011;63447;49.446;8.666;2023-11-21T03:09:46;6.30;;;1.80;;
74894;SDS011;63447;49.446;8.666;2023-11-21T03:12:12;7.75;;;1.65;;
74894;SDS011;63447;49.446;8.666;2023-11-21T03:14:37;7.27;;;2.07;;
74894;SDS011;63447;49.446;8.666;2023-11-21T03:17:04;6.78;;;1.80;;
74894;SDS011;63447;49.446;8.666;2023-11-21T03:19:32;5.75;;;1.92;;
74894;SDS011;63447;49.446;8.666;2023-11-21T03:21:57;6.65;;;2.15;;
74894;SDS011;63447;49.446;8.666;2023-11-21T03:24:23;5.85;;;1.98;;
74894;SDS011;63447;49.446;8.666;2023-11-21T03:26:49;6.07;;;1.85;;
74894;SDS011;63447;49.446;8.666;2023-11-21T03:29:17;5.00;;;1.70;;
74894;SDS011;63447;49.446;8.666;2023-11-21T03:31:43;7.28;;;1.63;;
74894;SDS011;63447;49.446;8.666;2023-11-21T03:34:15;4.63;;;1.73;;
74894;SDS011;63447;49.446;8.666;2023-11-21T03:36:47;6.00;;;1.65;;
74894;SDS011;63447;49.446;8.666;2023-11-21T03:39:12;6.82;;;2.20;;
74894;SDS011;63447;49.446;8.666;2023-11-21T03:41:38;5.93;;;1.60;;
74894;SDS011;63447;49.446;8.666;2023-11-21T03:44:04;6.95;;;1.60;;
74894;SDS011;63447;49.446;8.666;2023-11-21T03:46:34;5.07;;;1.88;;
74894;SDS011;63447;49.446;8.666;2023-11-21T03:49:04;6.63;;;1.70;;
74894;SDS011;63447;49.446;8.666;2023-11-21T03:51:29;7.23;;;1.80;;
74894;SDS011;63447;49.446;8.666;2023-11-21T03:53:54;8.30;;;1.60;;
74894;SDS011;63447;49.446;8.666;2023-11-21T03:56:20;5.87;;;1.70;;
74894;SDS011;63447;49.446;8.666;2023-11-21T03:58:48;5.22;;;1.73;;
74894;SDS011;63447;49.446;8.666;2023-11-21T04:01:23;5.82;;;1.83;;
74894;SDS011;63447;49.446;8.666;2023-11-21T04:03:49;5.82;;;2.10;;
74894;SDS011;63447;49.446;8.666;2023-11-21T04:06:18;6.05;;;1.77;;
74894;SDS011;63447;49.446;8.666;2023-11-21T04:08:44;7.13;;;2.80;;
74894;SDS011;63447;49.446;8.666;2023-11-21T04:11:10;5.05;;;2.22;;
74894;SDS011;63447;49.446;8.666;2023-11-21T04:13:41;5.78;;;2.20;;
74894;SDS011;63447;49.446;8.666;2023-11-21T04:16:07;6.88;;;2.13;;
74894;SDS011;63447;49.446;8.666;2023-11-21T04:18:35;5.32;;;2.22;;
74894;SDS011;63447;49.446;8.666;2023-11-21T04:21:01;7.38;;;2.40;;
74894;SDS011;63447;49.446;8.666;2023-11-21T04:23:28;6.38;;;2.63;;
74894;SDS011;63447;49.446;8.666;2023-11-21T04:25:54;5.20;;;2.22;;
74894;SDS011;63447;49.446;8.666;2023-11-21T04:28:22;7.45;;;2.33;;
74894;SDS011;63447;49.446;8.666;2023-11-21T04:30:50;5.93;;;2.17;;
74894;SDS011;63447;49.446;8.666;2023-11-21T04:33:17;6.07;;;2.40;;
74894;SDS011;63447;49.446;8.666;2023-11-21T04:35:46;6.90;;;3.10;;
74894;SDS011;63447;49.446;8.666;2023-11-21T04:38:11;7.10;;;2.43;;
74894;SDS011;63447;49.446;8.666;2023-11-21T04:40:37;6.60;;;2.27;;
74894;SDS011;63447;49.446;8.666;2023-11-21T04:43:02;5.33;;;2.20;;
74894;SDS011;63447;49.446;8.666;2023-11-21T04:45:30;6.13;;;2.30;;
74894;SDS011;63447;49.446;8.666;2023-11-21T04:47:55;7.00;;;2.40;;
74894;SDS011;63447;49.446;8.666;2023-11-21T04:50:21;6.50;;;2.55;;
74894;SDS011;63447;49.446;8.666;2023-11-21T04:52:46;7.28;;;2.28;;
74894;SDS011;63447;49.446;8.666;2023-11-21T04:55:12;6.18;;;2.15;;
74894;SDS011;63447;49.446;8.666;2023-11-21T04:57:37;7.37;;;2.20;;
74894;SDS011;63447;49.446;8.666;2023-11-21T05:00:03;5.95;;;2.40;;
74894;SDS011;63447;49.446;8.666;2023-11-21T05:02:31;5.60;;;2.25;;
74894;SDS011;63447;49.446;8.666;2023-11-21T05:05:00;6.47;;;2.20;;
74894;SDS011;63447;49.446;8.666;2023-11-21T05:07:28;6.13;;;1.90;;
74894;SDS011;63447;49.446;8.666;2023-11-21T05:09:56;6.05;;;2.05;;
74894;SDS011;63447;49.446;8.666;2023-11-21T05:12:21;5.30;;;2.58;;
74894;SDS011;63447;49.446;8.666;2023-11-21T05:14:48;6.38;;;2.40;;
74894;SDS011;63447;49.446;8.666;2023-11-21T05:17:16;6.57;;;2.60;;
74894;SDS011;63447;49.446;8.666;2023-11-21T05:19:44;5.38;;;2.58;;
74894;SDS011;63447;49.446;8.666;2023-11-21T05:22:13;8.32;;;2.88;;
74894;SDS011;63447;49.446;8.666;2023-11-21T05:24:38;5.88;;;2.25;;
74894;SDS011;63447;49.446;8.666;2023-11-21T05:27:06;6.07;;;2.17;;
74894;SDS011;63447;49.446;8.666;2023-11-21T05:29:34;10.73;;;2.88;;
74894;SDS011;63447;49.446;8.666;2023-11-21T05:32:02;6.30;;;2.30;;
74894;SDS011;63447;49.446;8.666;2023-11-21T05:34:28;7.60;;;2.40;;
74894;SDS011;63447;49.446;8.666;2023-11-21T05:36:53;5.03;;;2.20;;
74894;SDS011;63447;49.446;8.666;2023-11-21T05:39:23;8.05;;;2.42;;
74894;SDS011;63447;49.446;8.666;2023-11-21T05:41:50;7.90;;;2.97;;
74894;SDS011;63447;49.446;8.666;2023-11-21T05:44:18;6.70;;;2.67;;
74894;SDS011;63447;49.446;8.666;2023-11-21T05:46:46;7.47;;;3.00;;
74894;SDS011;63447;49.446;8.666;2023-11-21T05:49:11;5.93;;;3.00;;
74894;SDS011;63447;49.446;8.666;2023-11-21T05:51:37;6.80;;;3.13;;
74894;SDS011;63447;49.446;8.666;2023-11-21T05:54:03;6.15;;;2.92;;
74894;SDS011;63447;49.446;8.666;2023-11-21T05:56:29;7.80;;;3.25;;
74894;SDS011;63447;49.446;8.666;2023-11-21T05:58:54;8.67;;;3.33;;
74894;SDS011;63447;49.446;8.666;2023-11-21T06:01:22;8.17;;;3.30;;
74894;SDS011;63447;49.446;8.666;2023-11-21T06:03:50;7.13;;;3.65;;
74894;SDS011;63447;49.446;8.666;2023-11-21T06:06:17;6.95;;;3.22;;
74894;SDS011;63447;49.446;8.666;2023-11-21T06:08:44;8.40;;;3.25;;
74894;SDS011;63447;49.446;8.666;2023-11-21T06:11:09;6.00;;;3.20;;
74894;SDS011;63447;49.446;8.666;2023-11-21T06:13:36;7.18;;;3.15;;
74894;SDS011;63447;49.446;8.666;2023-11-21T06:16:02;5.88;;;2.95;;
74894;SDS011;63447;49.446;8.666;2023-11-21T06:18:27;6.67;;;3.10;;
74894;SDS011;63447;49.446;8.666;2023-11-21T06:20:54;7.07;;;3.17;;
74894;SDS011;63447;49.446;8.666;2023-11-21T06:23:23;20.77;;;11.10;;
74894;SDS011;63447;49.446;8.666;2023-11-21T06:25:48;11.40;;;5.67;;
74894;SDS011;63447;49.446;8.666;2023-11-21T06:28:13;9.30;;;4.70;;
74894;SDS011;63447;49.446;8.666;2023-11-21T06:30:42;6.78;;;3.08;;
74894;SDS011;63447;49.446;8.666;2023-11-21T06:33:09;7.03;;;3.00;;
74894;SDS011;63447;49.446;8.666;2023-11-21T06:35:36;8.02;;;3.50;;
74894;SDS011;63447;49.446;8.666;2023-11-21T06:38:02;8.63;;;3.67;;
74894;SDS011;63447;49.446;8.666;2023-11-21T06:40:30;9.30;;;4.05;;
74894;SDS011;63447;49.446;8.666;2023-11-21T06:42:58;7.20;;;3.72;;
74894;SDS011;63447;49.446;8.666;2023-11-21T06:45:26;7.03;;;3.50;;
74894;SDS011;63447;49.446;8.666;2023-11-21T06:47:51;6.43;;;3.70;;
74894;SDS011;63447;49.446;8.666;2023-11-21T06:50:19;9.48;;;4.20;;
74894;SDS011;63447;49.446;8.666;2023-11-21T06:52:45;7.57;;;3.92;;
74894;SDS011;63447;49.446;8.666;2023-11-21T06:55:13;8.25;;;3.95;;
74894;SDS011;63447;49.446;8.666;2023-11-21T06:57:38;66.05;;;35.50;;
74894;SDS011;63447;49.446;8.666;2023-11-21T07:00:03;41.90;;;22.63;;
74894;SDS011;63447;49.446;8.666;2023-11-21T07:02:30;15.88;;;8.18;;
74894;SDS011;63447;49.446;8.666;2023-11-21T07:04:55;8.97;;;5.07;;
74894;SDS011;63447;49.446;8.666;2023-11-21T07:07:20;7.67;;;4.33;;
74894;SDS011;63447;49.446;8.666;2023-11-21T07:09:48;7.97;;;4.68;;
74894;SDS011;63447;49.446;8.666;2023-11-21T07:12:14;9.52;;;4.55;;
74894;SDS011;63447;49.446;8.666;2023-11-21T07:14:39;10.27;;;5.03;;
74894;SDS011;63447;49.446;8.666;2023-11-21T07:17:09;9.77;;;5.25;;
74894;SDS011;63447;49.446;8.666;2023-11-21T07:19:38;12.02;;;5.20;;
74894;SDS011;63447;49.446;8.666;2023-11-21T07:22:04;8.88;;;5.07;;
74894;SDS011;63447;49.446;8.666;2023-11-21T07:24:30;11.75;;;4.97;;
74894;SDS011;63447;49.446;8.666;2023-11-21T07:26:57;8.82;;;4.40;;
74894;SDS011;63447;49.446;8.666;2023-11-21T07:29:23;8.95;;;4.50;;
74894;SDS011;63447;49.446;8.666;2023-11-21T07:31:50;8.02;;;4.32;;
74894;SDS011;63447;49.446;8.666;2023-11-21T07:34:16;9.60;;;4.55;;
74894;SDS011;63447;49.446;8.666;2023-11-21T07:36:41;8.83;;;4.93;;
74894;SDS011;63447;49.446;8.666;2023-11-21T07:39:07;10.05;;;4.85;;
74894;SDS011;63447;49.446;8.666;2023-11-21T07:41:32;11.10;;;5.38;;
74894;SDS011;63447;49.446;8.666;2023-11-21T07:43:57;13.47;;;5.10;;
74894;SDS011;63447;49.446;8.666;2023-11-21T07:46:23;9.25;;;5.00;;
74894;SDS011;63447;49.446;8.666;2023-11-21T07:48:49;12.88;;;7.40;;
74894;SDS011;63447;49.446;8.666;2023-11-21T07:51:14;12.60;;;6.78;;
74894;SDS011;63447;49.446;8.666;2023-11-21T07:53:39;12.48;;;6.57;;
74894;SDS011;63447;49.446;8.666;2023-11-21T07:56:06;13.25;;;7.15;;
74894;SDS011;63447;49.446;8.666;2023-11-21T07:58:35;14.80;;;7.93;;
74894;SDS011;63447;49.446;8.666;2023-11-21T08:01:04;15.65;;;7.30;;
74894;SDS011;63447;49.446;8.666;2023-11-21T08:03:29;15.20;;;7.88;;
74894;SDS011;63447;49.446;8.666;2023-11-21T08:05:56;18.20;;;7.55;;
74894;SDS011;63447;49.446;8.666;2023-11-21T08:08:24;14.30;;;7.30;;
74894;SDS011;63447;49.446;8.666;2023-11-21T08:10:50;14.70;;;7.35;;
74894;SDS011;63447;49.446;8.666;2023-11-21T08:13:24;14.93;;;8.27;;
74894;SDS011;63447;49.446;8.666;2023-11-21T08:15:53;13.77;;;7.20;;
74894;SDS011;63447;49.446;8.666;2023-11-21T08:18:19;14.75;;;7.68;;
74894;SDS011;63447;49.446;8.666;2023-11-21T08:20:47;12.90;;;6.93;;
74894;SDS011;63447;49.446;8.666;2023-11-21T08:23:15;14.40;;;7.10;;
74894;SDS011;63447;49.446;8.666;2023-11-21T08:25:43;16.80;;;7.35;;
74894;SDS011;63447;49.446;8.666;2023-11-21T08:28:09;12.48;;;6.63;;
74894;SDS011;63447;49.446;8.666;2023-11-21T08:30:37;15.52;;;6.65;;
74894;SDS011;63447;49.446;8.666;2023-11-21T08:33:03;11.25;;;6.13;;
74894;SDS011;63447;49.446;8.666;2023-11-21T08:35:29;11.37;;;5.63;;
74894;SDS011;63447;49.446;8.666;2023-11-21T08:37:55;11.68;;;5.85;;
74894;SDS011;63447;49.446;8.666;2023-11-21T08:40:20;9.23;;;4.80;;
74894;SDS011;63447;49.446;8.666;2023-11-21T08:42:46;9.77;;;4.93;;
74894;SDS011;63447;49.446;8.666;2023-11-21T08:45:16;10.23;;;5.10;;
74894;SDS011;63447;49.446;8.666;2023-11-21T08:47:42;10.35;;;5.30;;
74894;SDS011;63447;49.446;8.666;2023-11-21T08:50:09;10.48;;;5.53;;
74894;SDS011;63447;49.446;8.666;2023-11-21T08:52:37;10.38;;;5.03;;
74894;SDS011;63447;49.446;8.666;2023-11-21T08:55:02;9.88;;;4.97;;
74894;SDS011;63447;49.446;8.666;2023-11-21T08:57:35;10.25;;;5.20;;
74894;SDS011;63447;49.446;8.666;2023-11-21T09:00:05;11.73;;;5.47;;
74894;SDS011;63447;49.446;8.666;2023-11-21T09:02:38;11.18;;;5.38;;
74894;SDS011;63447;49.446;8.666;2023-11-21T09:05:08;11.55;;;5.38;;
74894;SDS011;63447;49.446;8.666;2023-11-21T09:07:38;11.70;;;5.57;;
74894;SDS011;63447;49.446;8.666;2023-11-21T09:10:07;11.15;;;5.10;;
74894;SDS011;63447;49.446;8.666;2023-11-21T09:12:34;10.50;;;4.78;;
74894;SDS011;63447;49.446;8.666;2023-11-21T09:15:03;8.55;;;4.40;;
74894;SDS011;63447;49.446;8.666;2023-11-21T09:17:32;8.75;;;4.10;;
74894;SDS011;63447;49.446;8.666;2023-11-21T09:20:00;8.15;;;3.55;;
74894;SDS011;63447;49.446;8.666;2023-11-21T09:22:28;7.57;;;3.42;;
74894;SDS011;63447;49.446;8.666;2023-11-21T09:24:54;6.55;;;3.15;;
74894;SDS011;63447;49.446;8.666;2023-11-21T09:27:21;5.97;;;2.50;;
74894;SDS011;63447;49.446;8.666;2023-11-21T09:29:50;5.43;;;2.40;;
74894;SDS011;63447;49.446;8.666;2023-11-21T09:32:18;6.22;;;2.90;;
74894;SDS011;63447;49.446;8.666;2023-11-21T09:34:43;6.60;;;3.28;;
74894;SDS011;63447;49.446;8.666;2023-11-21T09:37:09;7.05;;;3.15;;
74894;SDS011;63447;49.446;8.666;2023-11-21T09:39:34;6.18;;;2.90;;
74894;SDS011;63447;49.446;8.666;2023-11-21T09:42:10;5.40;;;2.70;;
74894;SDS011;63447;49.446;8.666;2023-11-21T09:44:44;5.25;;;2.38;;
74894;SDS011;63447;49.446;8.666;2023-11-21T09:47:14;5.38;;;2.50;;
74894;SDS011;63447;49.446;8.666;2023-11-21T09:49:46;4.75;;;2.30;;
74894;SDS011;63447;49.446;8.666;2023-11-21T09:52:14;5.03;;;2.10;;
74894;SDS011;63447;49.446;8.666;2023-11-21T09:54:50;4.97;;;2.13;;
74894;SDS011;63447;49.446;8.666;2023-11-21T09:57:18;5.15;;;2.20;;
74894;SDS011;63447;49.446;8.666;2023-11-21T09:59:53;4.80;;;2.25;;
74894;SDS011;63447;49.446;8.666;2023-11-21T10:02:26;5.80;;;3.15;;
74894;SDS011;63447;49.446;8.666;2023-11-21T10:04:55;5.53;;;2.17;;
74894;SDS011;63447;49.446;8.666;2023-11-21T10:07:21;6.13;;;2.20;;
74894;SDS011;63447;49.446;8.666;2023-11-21T10:09:51;5.63;;;2.50;;
74894;SDS011;63447;49.446;8.666;2023-11-21T10:12:16;6.07;;;2.53;;
74894;SDS011;63447;49.446;8.666;2023-11-21T10:14:46;5.53;;;2.92;;
74894;SDS011;63447;49.446;8.666;2023-11-21T10:17:14;5.97;;;2.53;;
74894;SDS011;63447;49.446;8.666;2023-11-21T10:19:43;5.60;;;2.70;;
74894;SDS011;63447;49.446;8.666;2023-11-21T10:22:14;5.72;;;2.75;;
74894;SDS011;63447;49.446;8.666;2023-11-21T10:24:48;7.82;;;3.63;;
74894;SDS011;63447;49.446;8.666;2023-11-21T10:27:18;8.20;;;3.60;;
74894;SDS011;63447;49.446;8.666;2023-11-21T10:29:44;7.80;;;3.80;;
74894;SDS011;63447;49.446;8.666;2023-11-21T10:32:09;7.00;;;3.40;;
74894;SDS011;63447;49.446;8.666;2023-11-21T10:34:37;9.57;;;4.53;;
74894;SDS011;63447;49.446;8.666;2023-11-21T10:37:10;8.60;;;4.15;;
74894;SDS011;63447;49.446;8.666;2023-11-21T10:39:40;8.88;;;4.40;;
74894;SDS011;63447;49.446;8.666;2023-11-21T10:42:07;8.82;;;4.70;;
74894;SDS011;63447;49.446;8.666;2023-11-21T10:44:33;8.90;;;4.55;;
74894;SDS011;63447;49.446;8.666;2023-11-21T10:46:59;8.40;;;4.43;;
74894;SDS011;63447;49.446;8.666;2023-11-21T10:49:26;8.88;;;4.47;;
74894;SDS011;63447;49.446;8.666;2023-11-21T10:51:52;8.80;;;4.35;;
74894;SDS011;63447;49.446;8.666;2023-11-21T10:54:21;9.10;;;4.80;;
74894;SDS011;63447;49.446;8.666;2023-11-21T10:56:48;9.73;;;4.80;;
74894;SDS011;63447;49.446;8.666;2023-11-21T10:59:18;10.95;;;5.10;;
74894;SDS011;63447;49.446;8.666;2023-11-21T11:01:45;11.63;;;5.88;;
74894;SDS011;63447;49.446;8.666;2023-11-21T11:04:11;10.70;;;6.15;;
74894;SDS011;63447;49.446;8.666;2023-11-21T11:06:44;10.45;;;5.68;;
74894;SDS011;63447;49.446;8.666;2023-11-21T11:09:16;10.65;;;4.95;;
74894;SDS011;63447;49.446;8.666;2023-11-21T11:11:44;14.48;;;5.60;;
74894;SDS011;63447;49.446;8.666;2023-11-21T11:14:11;10.73;;;4.97;;
74894;SDS011;63447;49.446;8.666;2023-11-21T11:16:40;10.60;;;5.43;;
74894;SDS011;63447;49.446;8.666;2023-11-21T11:19:08;11.95;;;5.60;;
74894;SDS011;63447;49.446;8.666;2023-11-21T11:32:27;10.40;;;4.32;;
74894;SDS011;63447;49.446;8.666;2023-11-21T11:35:17;8.75;;;4.80;;
74894;SDS011;63447;49.446;8.666;2023-11-21T11:37:57;9.88;;;4.93;;
74894;SDS011;63447;49.446;8.666;2023-11-21T11:40:25;9.38;;;4.95;;
74894;SDS011;63447;49.446;8.666;2023-11-21T11:43:03;10.27;;;5.03;;
74894;SDS011;63447;49.446;8.666;2023-11-21T11:45:32;10.73;;;4.97;;
74894;SDS011;63447;49.446;8.666;2023-11-21T11:47:59;11.88;;;5.78;;
74894;SDS011;63447;49.446;8.666;2023-11-21T11:50:28;10.32;;;5.55;;
74894;SDS011;63447;49.446;8.666;2023-11-21T11:52:54;9.57;;;4.93;;
74894;SDS011;63447;49.446;8.666;2023-11-21T11:55:22;7.82;;;4.00;;
74894;SDS011;63447;49.446;8.666;2023-11-21T11:57:50;6.63;;;3.35;;
74894;SDS011;63447;49.446;8.666;2023-11-21T12:00:18;6.38;;;3.00;;
74894;SDS011;63447;49.446;8.666;2023-11-21T12:03:03;5.57;;;2.95;;
74894;SDS011;63447;49.446;8.666;2023-11-21T12:05:31;7.38;;;3.08;;
74894;SDS011;63447;49.446;8.666;2023-11-21T12:07:59;6.82;;;3.38;;
74894;SDS011;63447;49.446;8.666;2023-11-21T12:10:28;6.25;;;3.10;;
74894;SDS011;63447;49.446;8.666;2023-11-21T12:12:55;5.90;;;3.33;;
74894;SDS011;63447;49.446;8.666;2023-11-21T12:15:21;5.90;;;2.80;;
74894;SDS011;63447;49.446;8.666;2023-11-21T12:17:48;5.78;;;2.70;;
74894;SDS011;63447;49.446;8.666;2023-11-21T12:20:14;6.30;;;3.13;;
74894;SDS011;63447;49.446;8.666;2023-11-21T12:22:43;5.80;;;2.80;;
74894;SDS011;63447;49.446;8.666;2023-11-21T12:25:19;5.13;;;2.50;;
74894;SDS011;63447;49.446;8.666;2023-11-21T12:27:46;5.07;;;2.10;;
74894;SDS011;63447;49.446;8.666;2023-11-21T12:30:18;4.63;;;2.25;;
74894;SDS011;63447;49.446;8.666;2023-11-21T12:32:45;5.45;;;2.40;;
74894;SDS011;63447;49.446;8.666;2023-11-21T12:35:14;7.10;;;2.90;;
74894;SDS011;63447;49.446;8.666;2023-11-21T12:37:40;6.97;;;2.22;;
74894;SDS011;63447;49.446;8.666;2023-11-21T12:40:08;5.63;;;2.28;;
74894;SDS011;63447;49.446;8.666;2023-11-21T12:42:37;5.60;;;2.53;;
74894;SDS011;63447;49.446;8.666;2023-11-21T12:47:45;7.70;;;2.80;;
74894;SDS011;63447;49.446;8.666;2023-11-21T12:50:15;4.78;;;2.10;;
74894;SDS011;63447;49.446;8.666;2023-11-21T12:52:44;4.53;;;1.75;;
74894;SDS011;63447;49.446;8.666;2023-11-21T12:55:20;4.70;;;1.85;;
74894;SDS011;63447;49.446;8.666;2023-11-21T12:57:50;7.03;;;3.20;;
74894;SDS011;63447;49.446;8.666;2023-11-21T13:00:30;4.15;;;1.50;;
74894;SDS011;63447;49.446;8.666;2023-11-21T13:02:58;3.70;;;1.20;;
74894;SDS011;63447;49.446;8.666;2023-11-21T13:05:24;3.60;;;1.20;;
74894;SDS011;63447;49.446;8.666;2023-11-21T13:07:54;4.57;;;1.38;;
74894;SDS011;63447;49.446;8.666;2023-11-21T13:10:23;3.88;;;1.17;;
74894;SDS011;63447;49.446;8.666;2023-11-21T13:12:51;3.85;;;1.25;;
74894;SDS011;63447;49.446;8.666;2023-11-21T13:15:17;3.22;;;0.98;;
74894;SDS011;63447;49.446;8.666;2023-11-21T13:17:43;3.92;;;1.20;;
74894;SDS011;63447;49.446;8.666;2023-11-21T13:20:10;3.38;;;1.10;;
74894;SDS011;63447;49.446;8.666;2023-11-21T13:22:44;3.45;;;1.00;;
74894;SDS011;63447;49.446;8.666;2023-11-21T13:25:16;4.05;;;1.00;;
74894;SDS011;63447;49.446;8.666;2023-11-21T13:27:44;3.08;;;0.80;;
74894;SDS011;63447;49.446;8.666;2023-11-21T13:30:11;3.85;;;0.90;;
74894;SDS011;63447;49.446;8.666;2023-11-21T13:32:50;3.50;;;1.20;;
74894;SDS011;63447;49.446;8.666;2023-11-21T13:35:22;4.50;;;1.02;;
74894;SDS011;63447;49.446;8.666;2023-11-21T13:38:07;3.63;;;1.15;;
74894;SDS011;63447;49.446;8.666;2023-11-21T13:40:37;4.30;;;1.73;;
74894;SDS011;63447;49.446;8.666;2023-11-21T13:43:09;4.32;;;1.40;;
74894;SDS011;63447;49.446;8.666;2023-11-21T13:45:37;4.93;;;1.40;;
74894;SDS011;63447;49.446;8.666;2023-11-21T13:48:07;3.95;;;1.13;;
74894;SDS011;63447;49.446;8.666;2023-11-21T13:50:42;4.32;;;1.38;;
74894;SDS011;63447;49.446;8.666;2023-11-21T13:53:22;4.22;;;1.20;;
74894;SDS011;63447;49.446;8.666;2023-11-21T13:55:54;5.03;;;1.37;;
74894;SDS011;63447;49.446;8.666;2023-11-21T13:58:20;4.65;;;1.50;;
74894;SDS011;63447;49.446;8.666;2023-11-21T14:00:49;5.53;;;1.50;;
74894;SDS011;63447;49.446;8.666;2023-11-21T14:03:24;4.35;;;1.60;;
74894;SDS011;63447;49.446;8.666;2023-11-21T14:05:57;4.20;;;1.55;;
74894;SDS011;63447;49.446;8.666;2023-11-21T14:08:25;4.65;;;1.60;;
74894;SDS011;63447;49.446;8.666;2023-11-21T14:10:56;4.22;;;1.50;;
74894;SDS011;63447;49.446;8.666;2023-11-21T14:13:25;5.00;;;1.65;;
74894;SDS011;63447;49.446;8.666;2023-11-21T14:15:54;5.47;;;1.90;;
74894;SDS011;63447;49.446;8.666;2023-11-21T14:18:27;6.90;;;2.05;;
74894;SDS011;63447;49.446;8.666;2023-11-21T14:21:29;5.45;;;1.90;;
74894;SDS011;63447;49.446;8.666;2023-11-21T14:23:54;5.00;;;1.70;;
74894;SDS011;63447;49.446;8.666;2023-11-21T14:26:38;6.18;;;2.05;;
74894;SDS011;63447;49.446;8.666;2023-11-21T14:29:07;5.45;;;2.10;;
74894;SDS011;63447;49.446;8.666;2023-11-21T14:31:39;4.20;;;1.40;;
74894;SDS011;63447;49.446;8.666;2023-11-21T14:34:08;5.00;;;2.35;;
74894;SDS011;63447;49.446;8.666;2023-11-21T14:36:37;4.72;;;1.40;;
74894;SDS011;63447;49.446;8.666;2023-11-21T14:39:04;7.50;;;1.85;;
74894;SDS011;63447;49.446;8.666;2023-11-21T14:41:36;5.53;;;1.65;;
74894;SDS011;63447;49.446;8.666;2023-11-21T14:44:03;4.55;;;1.40;;
74894;SDS011;63447;49.446;8.666;2023-11-21T14:46:36;6.03;;;1.50;;
74894;SDS011;63447;49.446;8.666;2023-11-21T14:49:04;5.85;;;1.60;;
74894;SDS011;63447;49.446;8.666;2023-11-21T14:51:48;5.53;;;1.50;;
74894;SDS011;63447;49.446;8.666;2023-11-21T14:54:30;6.32;;;1.63;;
74894;SDS011;63447;49.446;8.666;2023-11-21T14:59:42;4.53;;;1.50;;
74894;SDS011;63447;49.446;8.666;2023-11-21T15:02:12;4.43;;;1.63;;
74894;SDS011;63447;49.446;8.666;2023-11-21T15:04:43;4.32;;;1.85;;
74894;SDS011;63447;49.446;8.666;2023-11-21T15:07:09;6.10;;;2.03;;
74894;SDS011;63447;49.446;8.666;2023-11-21T15:09:37;7.43;;;2.00;;
74894;SDS011;63447;49.446;8.666;2023-11-21T15:12:10;7.05;;;2.53;;